createdAt,value
2019-03-28T00:00:09.126Z,1023.66
2019-03-28T00:01:08.997Z,1023.60
2019-03-28T00:02:08.990Z,1023.65
2019-03-28T00:03:08.978Z,1023.60
2019-03-28T00:04:08.969Z,1023.66
2019-03-28T00:05:08.955Z,1023.66
2019-03-28T00:06:08.956Z,1023.68
2019-03-28T00:07:08.931Z,1023.65
2019-03-28T00:08:08.958Z,1023.65
2019-03-28T00:09:08.909Z,1023.74
2019-03-28T00:10:08.907Z,1023.67
2019-03-28T00:11:08.924Z,1023.65
2019-03-28T00:12:08.884Z,1023.63
2019-03-28T00:13:08.869Z,1023.63
2019-03-28T00:14:08.865Z,1023.66
2019-03-28T00:15:08.851Z,1023.64
2019-03-28T00:16:08.842Z,1023.62
2019-03-28T00:17:08.837Z,1023.59
2019-03-28T00:18:08.835Z,1023.57
2019-03-28T00:19:08.809Z,1023.60
2019-03-28T00:20:08.802Z,1023.58
2019-03-28T00:21:08.792Z,1023.57
2019-03-28T00:22:08.785Z,1023.59
2019-03-28T00:23:08.763Z,1023.53
2019-03-28T00:24:08.749Z,1023.54
2019-03-28T00:25:08.734Z,1023.60
2019-03-28T00:26:08.728Z,1023.60
2019-03-28T00:27:08.725Z,1023.60
2019-03-28T00:28:08.702Z,1023.60
2019-03-28T00:29:08.711Z,1023.51
2019-03-28T00:30:08.684Z,1023.53
2019-03-28T00:31:09.471Z,1023.55
2019-03-28T00:32:08.669Z,1023.56
2019-03-28T00:33:08.663Z,1023.54
2019-03-28T00:34:08.642Z,1023.55
2019-03-28T00:35:08.631Z,1023.52
2019-03-28T00:36:08.620Z,1023.53
2019-03-28T00:37:09.084Z,1023.49
2019-03-28T00:38:08.608Z,1023.55
2019-03-28T00:39:08.613Z,1023.53
2019-03-28T00:40:08.573Z,1023.57
2019-03-28T00:41:08.565Z,1023.48
2019-03-28T00:42:08.549Z,1023.58
2019-03-28T00:43:08.542Z,1023.57
2019-03-28T00:44:08.539Z,1023.58
2019-03-28T00:45:08.566Z,1023.60
2019-03-28T00:46:08.509Z,1023.58
2019-03-28T00:47:08.499Z,1023.61
2019-03-28T00:48:08.489Z,1023.45
2019-03-28T00:49:08.479Z,1023.57
2019-03-28T00:50:08.467Z,1023.52
2019-03-28T00:51:08.478Z,1023.59
2019-03-28T00:52:08.449Z,1023.54
2019-03-28T00:53:08.439Z,1023.49
2019-03-28T00:54:08.422Z,1023.54
2019-03-28T00:55:08.408Z,1023.57
2019-03-28T00:56:08.401Z,1023.52
2019-03-28T00:57:08.421Z,1023.52
2019-03-28T00:58:09.073Z,1023.55
2019-03-28T00:59:08.362Z,1023.55
2019-03-28T01:00:08.359Z,1023.51
2019-03-28T01:01:08.346Z,1023.50
2019-03-28T01:02:08.358Z,1023.50
2019-03-28T01:03:08.370Z,1023.54
2019-03-28T01:04:08.313Z,1023.50
2019-03-28T01:05:08.302Z,1023.48
2019-03-28T01:06:08.291Z,1023.48
2019-03-28T01:07:08.282Z,1023.56
2019-03-28T01:08:08.264Z,1023.53
2019-03-28T01:09:08.263Z,1023.65
2019-03-28T01:10:08.249Z,1023.53
2019-03-28T01:11:08.233Z,1023.59
2019-03-28T01:12:08.224Z,1023.63
2019-03-28T01:13:08.275Z,1023.58
2019-03-28T01:14:08.291Z,1023.65
2019-03-28T01:15:08.193Z,1023.60
2019-03-28T01:16:08.181Z,1023.62
2019-03-28T01:17:08.167Z,1023.57
2019-03-28T01:18:08.163Z,1023.59
2019-03-28T01:19:08.163Z,1023.62
2019-03-28T01:20:08.155Z,1023.57
2019-03-28T01:21:08.133Z,1023.58
2019-03-28T01:22:08.120Z,1023.61
2019-03-28T01:23:08.110Z,1023.67
2019-03-28T01:24:08.114Z,1023.59
2019-03-28T01:25:08.091Z,1023.60
2019-03-28T01:26:08.075Z,1023.61
2019-03-28T01:27:08.061Z,1023.64
2019-03-28T01:28:08.064Z,1023.61
2019-03-28T01:29:08.049Z,1023.61
2019-03-28T01:30:08.076Z,1023.55
2019-03-28T01:31:08.026Z,1023.49
2019-03-28T01:32:08.002Z,1023.58
2019-03-28T01:33:07.997Z,1023.53
2019-03-28T01:34:08.178Z,1023.64
2019-03-28T01:35:07.968Z,1023.55
2019-03-28T01:36:07.965Z,1023.59
2019-03-28T01:37:07.949Z,1023.61
2019-03-28T01:38:07.941Z,1023.57
2019-03-28T01:39:07.928Z,1023.55
2019-03-28T01:40:07.919Z,1023.52
2019-03-28T01:41:07.916Z,1023.62
2019-03-28T01:42:07.897Z,1023.51
2019-03-28T01:43:07.910Z,1023.54
2019-03-28T01:44:07.871Z,1023.52
2019-03-28T01:45:08.322Z,1023.50
2019-03-28T01:46:07.857Z,1023.52
2019-03-28T01:47:07.837Z,1023.49
2019-03-28T01:48:08.283Z,1023.49
2019-03-28T01:49:07.823Z,1023.52
2019-03-28T01:50:07.813Z,1023.55
2019-03-28T01:51:07.809Z,1023.56
2019-03-28T01:52:07.796Z,1023.61
2019-03-28T01:53:07.777Z,1023.56
2019-03-28T01:54:07.777Z,1023.52
2019-03-28T01:55:07.749Z,1023.49
2019-03-28T01:56:07.759Z,1023.53
2019-03-28T01:57:11.357Z,1023.45
2019-03-28T01:58:07.724Z,1023.49
2019-03-28T01:59:07.711Z,1023.51
2019-03-28T02:00:07.699Z,1023.47
2019-03-28T02:01:07.690Z,1023.46
2019-03-28T02:02:07.718Z,1023.51
2019-03-28T02:03:07.663Z,1023.51
2019-03-28T02:04:07.657Z,1023.46
2019-03-28T02:05:07.652Z,1023.51
2019-03-28T02:06:07.664Z,1023.56
2019-03-28T02:07:07.631Z,1023.55
2019-03-28T02:08:07.620Z,1023.56
2019-03-28T02:09:07.607Z,1023.51
2019-03-28T02:10:07.592Z,1023.55
2019-03-28T02:11:07.587Z,1023.54
2019-03-28T02:12:07.571Z,1023.54
2019-03-28T02:13:07.568Z,1023.61
2019-03-28T02:14:07.544Z,1023.43
2019-03-28T02:15:07.550Z,1023.54
2019-03-28T02:16:07.527Z,1023.49
2019-03-28T02:17:07.509Z,1023.42
2019-03-28T02:18:07.542Z,1023.48
2019-03-28T02:19:07.511Z,1023.47
2019-03-28T02:20:07.482Z,1023.44
2019-03-28T02:21:09.613Z,1023.51
2019-03-28T02:22:07.455Z,1023.51
2019-03-28T02:23:07.452Z,1023.52
2019-03-28T02:24:07.437Z,1023.55
2019-03-28T02:25:07.439Z,1023.62
2019-03-28T02:26:07.416Z,1023.58
2019-03-28T02:27:07.404Z,1023.55
2019-03-28T02:28:07.393Z,1023.56
2019-03-28T02:29:07.491Z,1023.65
2019-03-28T02:30:07.371Z,1023.64
2019-03-28T02:31:07.365Z,1023.62
2019-03-28T02:32:07.352Z,1023.63
2019-03-28T02:33:07.341Z,1023.58
2019-03-28T02:34:07.334Z,1023.60
2019-03-28T02:35:07.323Z,1023.58
2019-03-28T02:36:07.311Z,1023.64
2019-03-28T02:37:07.296Z,1023.65
2019-03-28T02:38:07.283Z,1023.62
2019-03-28T02:39:07.292Z,1023.62
2019-03-28T02:40:07.292Z,1023.61
2019-03-28T02:41:07.303Z,1023.58
2019-03-28T02:42:07.264Z,1023.65
2019-03-28T02:43:07.237Z,1023.69
2019-03-28T02:44:07.259Z,1023.67
2019-03-28T02:45:07.203Z,1023.67
2019-03-28T02:46:07.206Z,1023.69
2019-03-28T02:47:07.181Z,1023.75
2019-03-28T02:48:07.176Z,1023.66
2019-03-28T02:49:07.163Z,1023.63
2019-03-28T02:50:07.167Z,1023.71
2019-03-28T02:51:07.147Z,1023.70
2019-03-28T02:52:07.128Z,1023.71
2019-03-28T02:53:07.122Z,1023.62
2019-03-28T02:54:07.120Z,1023.71
2019-03-28T02:55:07.113Z,1023.66
2019-03-28T02:56:07.099Z,1023.69
2019-03-28T02:57:07.933Z,1023.71
2019-03-28T02:58:07.062Z,1023.73
2019-03-28T02:59:07.060Z,1023.70
2019-03-28T03:00:07.050Z,1023.73
2019-03-28T03:01:07.039Z,1023.75
2019-03-28T03:02:07.056Z,1023.72
2019-03-28T03:03:07.015Z,1023.73
2019-03-28T03:04:07.002Z,1023.72
2019-03-28T03:05:06.996Z,1023.76
2019-03-28T03:06:06.999Z,1023.70
2019-03-28T03:07:06.967Z,1023.69
2019-03-28T03:08:07.725Z,1023.75
2019-03-28T03:09:06.941Z,1023.74
2019-03-28T03:10:06.935Z,1023.66
2019-03-28T03:11:06.919Z,1023.74
2019-03-28T03:12:06.923Z,1023.70
2019-03-28T03:13:06.905Z,1023.74
2019-03-28T03:14:06.895Z,1023.70
2019-03-28T03:15:06.884Z,1023.70
2019-03-28T03:16:06.863Z,1023.70
2019-03-28T03:17:06.868Z,1023.72
2019-03-28T03:18:07.766Z,1023.71
2019-03-28T03:19:06.847Z,1023.68
2019-03-28T03:20:06.825Z,1023.64
2019-03-28T03:21:06.810Z,1023.67
2019-03-28T03:22:06.809Z,1023.65
2019-03-28T03:23:06.793Z,1023.71
2019-03-28T03:24:06.783Z,1023.61
2019-03-28T03:25:06.769Z,1023.69
2019-03-28T03:26:06.759Z,1023.61
2019-03-28T03:27:06.752Z,1023.66
2019-03-28T03:28:06.742Z,1023.68
2019-03-28T03:29:06.739Z,1023.70
2019-03-28T03:30:06.720Z,1023.70
2019-03-28T03:31:06.733Z,1023.72
2019-03-28T03:32:06.699Z,1023.72
2019-03-28T03:33:08.894Z,1023.73
2019-03-28T03:34:06.686Z,1023.69
2019-03-28T03:35:06.668Z,1023.72
2019-03-28T03:36:06.647Z,1023.78
2019-03-28T03:37:06.657Z,1023.79
2019-03-28T03:38:06.623Z,1023.70
2019-03-28T03:39:06.623Z,1023.76
2019-03-28T03:40:06.614Z,1023.79
2019-03-28T03:41:06.599Z,1023.71
2019-03-28T03:42:06.581Z,1023.75
2019-03-28T03:43:06.569Z,1023.76
2019-03-28T03:44:06.587Z,1023.82
2019-03-28T03:45:06.552Z,1023.74
2019-03-28T03:46:06.542Z,1023.77
2019-03-28T03:47:06.529Z,1023.77
2019-03-28T03:48:06.514Z,1023.77
2019-03-28T03:49:06.511Z,1023.75
2019-03-28T03:50:06.511Z,1023.78
2019-03-28T03:51:06.486Z,1023.78
2019-03-28T03:52:06.472Z,1023.79
2019-03-28T03:53:07.509Z,1023.75
2019-03-28T03:54:06.458Z,1023.85
2019-03-28T03:55:06.443Z,1023.81
2019-03-28T03:56:06.444Z,1023.76
2019-03-28T03:57:06.428Z,1023.78
2019-03-28T03:58:15.406Z,1023.85
2019-03-28T03:59:07.400Z,1023.79
2019-03-28T04:00:06.389Z,1023.78
2019-03-28T04:01:06.382Z,1023.86
2019-03-28T04:02:06.363Z,1023.87
2019-03-28T04:03:06.360Z,1023.86
2019-03-28T04:04:06.344Z,1023.85
2019-03-28T04:05:06.336Z,1023.90
2019-03-28T04:06:06.346Z,1023.82
2019-03-28T04:07:06.318Z,1023.88
2019-03-28T04:08:06.294Z,1023.87
2019-03-28T04:09:06.292Z,1023.88
2019-03-28T04:10:06.291Z,1023.86
2019-03-28T04:11:06.267Z,1023.93
2019-03-28T04:12:06.285Z,1023.83
2019-03-28T04:13:06.247Z,1023.89
2019-03-28T04:14:06.228Z,1023.91
2019-03-28T04:15:06.218Z,1023.89
2019-03-28T04:16:06.215Z,1023.84
2019-03-28T04:17:06.218Z,1023.88
2019-03-28T04:18:06.194Z,1023.90
2019-03-28T04:19:06.185Z,1023.92
2019-03-28T04:20:06.219Z,1023.94
2019-03-28T04:21:06.155Z,1023.94
2019-03-28T04:22:06.153Z,1023.92
2019-03-28T04:23:06.148Z,1023.92
2019-03-28T04:24:06.135Z,1023.94
2019-03-28T04:25:06.125Z,1023.99
2019-03-28T04:26:06.226Z,1023.94
2019-03-28T04:27:06.096Z,1023.93
2019-03-28T04:28:06.083Z,1023.96
2019-03-28T04:29:06.115Z,1023.91
2019-03-28T04:30:06.068Z,1023.95
2019-03-28T04:31:06.049Z,1023.99
2019-03-28T04:32:06.034Z,1023.92
2019-03-28T04:33:06.023Z,1023.94
2019-03-28T04:34:07.740Z,1023.94
2019-03-28T04:35:06.021Z,1023.98
2019-03-28T04:36:05.994Z,1024.01
2019-03-28T04:37:06.545Z,1023.98
2019-03-28T04:38:05.969Z,1023.96
2019-03-28T04:39:05.956Z,1024.08
2019-03-28T04:40:05.950Z,1024.06
2019-03-28T04:41:05.940Z,1024.03
2019-03-28T04:42:05.930Z,1024.11
2019-03-28T04:43:05.938Z,1024.12
2019-03-28T04:44:05.908Z,1024.10
2019-03-28T04:45:05.913Z,1024.06
2019-03-28T04:46:05.883Z,1024.12
2019-03-28T04:47:05.875Z,1024.09
2019-03-28T04:48:05.857Z,1024.13
2019-03-28T04:49:05.852Z,1024.13
2019-03-28T04:50:05.861Z,1024.12
2019-03-28T04:51:05.828Z,1024.30
2019-03-28T04:52:05.819Z,1024.16
2019-03-28T04:53:05.813Z,1024.26
2019-03-28T04:54:05.792Z,1024.17
2019-03-28T04:55:05.785Z,1024.26
2019-03-28T04:56:05.784Z,1024.14
2019-03-28T04:57:05.764Z,1024.19
2019-03-28T04:58:05.760Z,1024.16
2019-03-28T04:59:05.740Z,1024.18
2019-03-28T05:00:05.814Z,1024.13
2019-03-28T05:01:05.733Z,1024.23
2019-03-28T05:02:05.711Z,1024.16
2019-03-28T05:03:05.701Z,1024.16
2019-03-28T05:04:05.684Z,1024.20
2019-03-28T05:05:06.401Z,1024.31
2019-03-28T05:06:05.740Z,1024.23
2019-03-28T05:07:05.654Z,1024.27
2019-03-28T05:08:05.643Z,1024.23
2019-03-28T05:09:05.633Z,1024.20
2019-03-28T05:10:05.627Z,1024.23
2019-03-28T05:11:05.614Z,1024.22
2019-03-28T05:12:05.603Z,1024.20
2019-03-28T05:13:05.588Z,1024.25
2019-03-28T05:14:05.577Z,1024.25
2019-03-28T05:15:06.068Z,1024.25
2019-03-28T05:16:05.552Z,1024.19
2019-03-28T05:17:05.550Z,1024.20
2019-03-28T05:18:06.362Z,1024.32
2019-03-28T05:19:05.519Z,1024.28
2019-03-28T05:20:05.507Z,1024.24
2019-03-28T05:21:06.279Z,1024.21
2019-03-28T05:22:05.497Z,1024.31
2019-03-28T05:23:05.501Z,1024.31
2019-03-28T05:24:06.380Z,1024.29
2019-03-28T05:25:05.453Z,1024.34
2019-03-28T05:26:05.442Z,1024.36
2019-03-28T05:27:05.458Z,1024.34
2019-03-28T05:28:05.424Z,1024.39
2019-03-28T05:29:05.434Z,1024.36
2019-03-28T05:30:06.701Z,1024.43
2019-03-28T05:31:05.391Z,1024.40
2019-03-28T05:32:05.402Z,1024.45
2019-03-28T05:33:05.431Z,1024.45
2019-03-28T05:34:05.359Z,1024.44
2019-03-28T05:35:05.355Z,1024.46
2019-03-28T05:36:05.337Z,1024.45
2019-03-28T05:37:05.333Z,1024.48
2019-03-28T05:38:05.315Z,1024.39
2019-03-28T05:39:05.309Z,1024.44
2019-03-28T05:40:05.290Z,1024.43
2019-03-28T05:41:05.283Z,1024.45
2019-03-28T05:42:05.282Z,1024.50
2019-03-28T05:43:05.254Z,1024.52
2019-03-28T05:44:05.279Z,1024.43
2019-03-28T05:45:05.248Z,1024.48
2019-03-28T05:46:05.231Z,1024.55
2019-03-28T05:47:05.238Z,1024.56
2019-03-28T05:48:05.200Z,1024.54
2019-03-28T05:49:05.195Z,1024.54
2019-03-28T05:50:05.192Z,1024.56
2019-03-28T05:51:05.168Z,1024.56
2019-03-28T05:52:05.164Z,1024.53
2019-03-28T05:53:05.163Z,1024.55
2019-03-28T05:54:05.139Z,1024.59
2019-03-28T05:55:05.579Z,1024.60
2019-03-28T05:56:05.115Z,1024.57
2019-03-28T05:57:05.125Z,1024.63
2019-03-28T05:58:05.096Z,1024.55
2019-03-28T05:59:10.843Z,1024.56
2019-03-28T06:00:06.072Z,1024.56
2019-03-28T06:01:05.066Z,1024.58
2019-03-28T06:02:05.047Z,1024.55
2019-03-28T06:03:05.052Z,1024.61
2019-03-28T06:04:05.030Z,1024.57
2019-03-28T06:05:05.015Z,1024.65
2019-03-28T06:06:05.009Z,1024.60
2019-03-28T06:07:05.006Z,1024.71
2019-03-28T06:08:04.998Z,1024.70
2019-03-28T06:09:04.975Z,1024.68
2019-03-28T06:10:04.960Z,1024.77
2019-03-28T06:11:04.951Z,1024.73
2019-03-28T06:12:04.966Z,1024.73
2019-03-28T06:13:04.932Z,1024.74
2019-03-28T06:14:04.922Z,1024.77
2019-03-28T06:15:04.924Z,1024.84
2019-03-28T06:16:04.895Z,1024.85
2019-03-28T06:17:04.894Z,1024.80
2019-03-28T06:18:04.915Z,1024.90
2019-03-28T06:19:04.877Z,1024.85
2019-03-28T06:20:04.859Z,1024.92
2019-03-28T06:21:04.843Z,1024.92
2019-03-28T06:22:04.831Z,1024.90
2019-03-28T06:23:04.865Z,1024.86
2019-03-28T06:24:05.349Z,1024.91
2019-03-28T06:25:05.904Z,1024.91
2019-03-28T06:26:04.855Z,1024.97
2019-03-28T06:27:04.782Z,1024.98
2019-03-28T06:28:04.765Z,1024.91
2019-03-28T06:29:04.778Z,1024.97
2019-03-28T06:30:04.741Z,1024.98
2019-03-28T06:31:04.741Z,1024.97
2019-03-28T06:32:04.722Z,1024.99
2019-03-28T06:33:04.707Z,1025.08
2019-03-28T06:34:04.695Z,1025.04
2019-03-28T06:35:04.704Z,1025.00
2019-03-28T06:36:04.673Z,1025.01
2019-03-28T06:37:04.668Z,1025.08
2019-03-28T06:38:04.656Z,1025.01
2019-03-28T06:39:04.646Z,1025.05
2019-03-28T06:40:05.525Z,1025.01
2019-03-28T06:41:04.663Z,1024.98
2019-03-28T06:42:04.612Z,1025.03
2019-03-28T06:43:04.610Z,1025.04
2019-03-28T06:44:04.594Z,1025.13
2019-03-28T06:45:04.581Z,1025.11
2019-03-28T06:46:04.584Z,1025.10
2019-03-28T06:47:04.599Z,1025.13
2019-03-28T06:48:04.543Z,1025.13
2019-03-28T06:49:04.538Z,1025.11
2019-03-28T06:50:04.547Z,1025.16
2019-03-28T06:51:04.522Z,1025.19
2019-03-28T06:52:04.548Z,1025.12
2019-03-28T06:53:04.494Z,1025.16
2019-03-28T06:54:04.680Z,1025.19
2019-03-28T06:55:04.470Z,1025.19
2019-03-28T06:56:04.458Z,1025.13
2019-03-28T06:57:04.466Z,1025.20
2019-03-28T06:58:04.447Z,1025.19
2019-03-28T06:59:04.426Z,1025.22
2019-03-28T07:00:04.432Z,1025.23
2019-03-28T07:01:04.411Z,1025.26
2019-03-28T07:02:04.397Z,1025.27
2019-03-28T07:03:04.383Z,1025.25
2019-03-28T07:04:04.510Z,1025.23
2019-03-28T07:05:04.360Z,1025.28
2019-03-28T07:06:04.364Z,1025.30
2019-03-28T07:07:04.363Z,1025.32
2019-03-28T07:08:04.338Z,1025.26
2019-03-28T07:09:04.313Z,1025.25
2019-03-28T07:10:04.306Z,1025.28
2019-03-28T07:11:04.296Z,1025.27
2019-03-28T07:12:04.285Z,1025.32
2019-03-28T07:13:04.280Z,1025.34
2019-03-28T07:14:04.266Z,1025.31
2019-03-28T07:15:04.247Z,1025.34
2019-03-28T07:16:04.241Z,1025.34
2019-03-28T07:17:04.223Z,1025.33
2019-03-28T07:18:04.226Z,1025.34
2019-03-28T07:19:04.216Z,1025.32
2019-03-28T07:20:04.195Z,1025.34
2019-03-28T07:21:04.184Z,1025.42
2019-03-28T07:22:04.179Z,1025.38
2019-03-28T07:23:04.190Z,1025.42
2019-03-28T07:24:04.159Z,1025.41
2019-03-28T07:25:04.136Z,1025.37
2019-03-28T07:26:04.138Z,1025.45
2019-03-28T07:27:04.119Z,1025.41
2019-03-28T07:28:06.360Z,1025.38
2019-03-28T07:29:04.115Z,1025.37
2019-03-28T07:30:04.098Z,1025.39
2019-03-28T07:31:04.085Z,1025.36
2019-03-28T07:32:04.059Z,1025.43
2019-03-28T07:33:04.057Z,1025.44
2019-03-28T07:34:04.047Z,1025.49
2019-03-28T07:35:04.038Z,1025.38
2019-03-28T07:36:04.041Z,1025.45
2019-03-28T07:37:04.016Z,1025.45
2019-03-28T07:38:04.013Z,1025.48
2019-03-28T07:39:03.991Z,1025.48
2019-03-28T07:40:04.040Z,1025.51
2019-03-28T07:41:03.975Z,1025.51
2019-03-28T07:42:03.952Z,1025.53
2019-03-28T07:43:03.967Z,1025.54
2019-03-28T07:44:03.943Z,1025.58
2019-03-28T07:45:03.925Z,1025.54
2019-03-28T07:46:03.918Z,1025.50
2019-03-28T07:47:03.902Z,1025.57
2019-03-28T07:48:03.895Z,1025.50
2019-03-28T07:49:03.887Z,1025.56
2019-03-28T07:50:03.870Z,1025.48
2019-03-28T07:51:03.859Z,1025.53
2019-03-28T07:52:03.850Z,1025.55
2019-03-28T07:53:03.839Z,1025.51
2019-03-28T07:54:03.835Z,1025.57
2019-03-28T07:55:03.818Z,1025.55
2019-03-28T07:56:03.805Z,1025.54
2019-03-28T07:57:03.799Z,1025.59
2019-03-28T07:58:03.782Z,1025.61
2019-03-28T07:59:03.795Z,1025.60
2019-03-28T08:00:05.180Z,1025.63
2019-03-28T08:01:03.750Z,1025.58
2019-03-28T08:02:03.739Z,1025.62
2019-03-28T08:03:03.726Z,1025.60
2019-03-28T08:04:03.851Z,1025.60
2019-03-28T08:05:03.708Z,1025.58
2019-03-28T08:06:03.733Z,1025.60
2019-03-28T08:07:03.715Z,1025.57
2019-03-28T08:08:03.679Z,1025.61
2019-03-28T08:09:03.680Z,1025.65
2019-03-28T08:10:03.656Z,1025.62
2019-03-28T08:11:03.639Z,1025.68
2019-03-28T08:12:04.756Z,1025.61
2019-03-28T08:13:03.635Z,1025.63
2019-03-28T08:14:03.610Z,1025.57
2019-03-28T08:15:03.596Z,1025.61
2019-03-28T08:16:03.595Z,1025.58
2019-03-28T08:17:03.587Z,1025.58
2019-03-28T08:18:03.565Z,1025.60
2019-03-28T08:19:03.571Z,1025.52
2019-03-28T08:20:03.551Z,1025.59
2019-03-28T08:21:03.534Z,1025.59
2019-03-28T08:22:03.532Z,1025.64
2019-03-28T08:23:03.526Z,1025.66
2019-03-28T08:24:03.502Z,1025.66
2019-03-28T08:25:03.494Z,1025.66
2019-03-28T08:26:03.477Z,1025.73
2019-03-28T08:27:03.463Z,1025.71
2019-03-28T08:28:03.463Z,1025.64
2019-03-28T08:29:03.467Z,1025.74
2019-03-28T08:30:17.209Z,1025.69
2019-03-28T08:31:04.423Z,1025.74
2019-03-28T08:32:03.417Z,1025.75
2019-03-28T08:33:03.403Z,1025.74
2019-03-28T08:34:03.390Z,1025.74
2019-03-28T08:35:03.390Z,1025.73
2019-03-28T08:36:03.362Z,1025.76
2019-03-28T08:37:03.363Z,1025.77
2019-03-28T08:38:03.339Z,1025.76
2019-03-28T08:39:03.329Z,1025.83
2019-03-28T08:40:03.378Z,1025.79
2019-03-28T08:41:03.319Z,1025.83
2019-03-28T08:42:03.301Z,1025.70
2019-03-28T08:43:03.296Z,1025.77
2019-03-28T08:44:03.276Z,1025.85
2019-03-28T08:45:03.263Z,1025.86
2019-03-28T08:46:03.264Z,1025.88
2019-03-28T08:47:06.074Z,1025.92
2019-03-28T08:48:03.239Z,1025.92
2019-03-28T08:49:03.221Z,1025.89
2019-03-28T08:50:03.220Z,1025.92
2019-03-28T08:51:03.336Z,1025.97
2019-03-28T08:52:03.189Z,1025.95
2019-03-28T08:53:03.181Z,1026.00
2019-03-28T08:54:03.167Z,1025.90
2019-03-28T08:55:03.165Z,1025.93
2019-03-28T08:56:03.142Z,1025.93
2019-03-28T08:57:03.180Z,1025.92
2019-03-28T08:58:03.120Z,1025.96
2019-03-28T08:59:03.113Z,1025.93
2019-03-28T09:00:03.104Z,1025.93
2019-03-28T09:01:03.093Z,1025.93
2019-03-28T09:02:05.013Z,1025.92
2019-03-28T09:03:03.090Z,1026.01
2019-03-28T09:04:03.057Z,1026.04
2019-03-28T09:05:03.074Z,1026.05
2019-03-28T09:06:03.037Z,1026.00
2019-03-28T09:07:03.036Z,1026.03
2019-03-28T09:08:03.026Z,1026.06
2019-03-28T09:09:03.008Z,1026.08
2019-03-28T09:10:02.995Z,1026.08
2019-03-28T09:11:02.987Z,1026.08
2019-03-28T09:12:03.015Z,1026.02
2019-03-28T09:13:02.964Z,1026.06
2019-03-28T09:14:02.955Z,1026.01
2019-03-28T09:15:02.940Z,1026.02
2019-03-28T09:16:02.925Z,1025.92
2019-03-28T09:17:02.930Z,1025.95
2019-03-28T09:18:02.938Z,1025.95
2019-03-28T09:19:02.899Z,1025.87
2019-03-28T09:20:02.886Z,1025.92
2019-03-28T09:21:02.873Z,1025.87
2019-03-28T09:22:02.865Z,1025.88
2019-03-28T09:23:02.866Z,1025.88
2019-03-28T09:24:02.853Z,1025.88
2019-03-28T09:25:02.824Z,1025.95
2019-03-28T09:26:04.360Z,1025.97
2019-03-28T09:27:02.835Z,1025.89
2019-03-28T09:28:02.806Z,1025.87
2019-03-28T09:29:02.783Z,1025.93
2019-03-28T09:30:02.786Z,1025.91
2019-03-28T09:31:02.760Z,1025.85
2019-03-28T09:32:02.750Z,1025.91
2019-03-28T09:33:02.737Z,1025.90
2019-03-28T09:34:02.735Z,1025.91
2019-03-28T09:35:02.735Z,1025.92
2019-03-28T09:36:02.708Z,1025.94
2019-03-28T09:37:02.695Z,1025.92
2019-03-28T09:38:02.689Z,1025.89
2019-03-28T09:39:02.683Z,1025.89
2019-03-28T09:40:02.677Z,1025.86
2019-03-28T09:41:02.701Z,1025.85
2019-03-28T09:42:02.644Z,1025.83
2019-03-28T09:43:02.633Z,1025.84
2019-03-28T09:44:02.616Z,1025.81
2019-03-28T09:45:02.620Z,1025.76
2019-03-28T09:46:02.598Z,1025.81
2019-03-28T09:47:02.605Z,1025.80
2019-03-28T09:48:02.580Z,1025.78
2019-03-28T09:49:02.561Z,1025.77
2019-03-28T09:50:02.558Z,1025.80
2019-03-28T09:51:02.558Z,1025.82
2019-03-28T09:52:02.542Z,1025.83
2019-03-28T09:53:02.517Z,1025.81
2019-03-28T09:54:02.523Z,1025.80
2019-03-28T09:55:02.497Z,1025.80
2019-03-28T09:56:02.500Z,1025.73
2019-03-28T09:57:02.507Z,1025.72
2019-03-28T09:58:02.514Z,1025.77
2019-03-28T09:59:02.457Z,1025.81
2019-03-28T10:00:02.441Z,1025.84
2019-03-28T10:01:03.419Z,1025.78
2019-03-28T10:02:02.786Z,1025.82
2019-03-28T10:03:02.411Z,1025.82
2019-03-28T10:04:02.395Z,1025.82
2019-03-28T10:05:02.385Z,1025.82
2019-03-28T10:06:02.419Z,1025.84
2019-03-28T10:07:02.365Z,1025.86
2019-03-28T10:08:02.358Z,1025.86
2019-03-28T10:09:02.342Z,1025.79
2019-03-28T10:10:03.072Z,1025.80
2019-03-28T10:11:02.321Z,1025.80
2019-03-28T10:12:02.321Z,1025.81
2019-03-28T10:13:02.301Z,1025.81
2019-03-28T10:14:02.289Z,1025.88
2019-03-28T10:15:02.274Z,1025.88
2019-03-28T10:16:02.259Z,1025.88
2019-03-28T10:17:02.275Z,1025.82
2019-03-28T10:18:02.234Z,1025.82
2019-03-28T10:19:02.245Z,1025.86
2019-03-28T10:20:02.214Z,1025.86
2019-03-28T10:21:02.202Z,1025.80
2019-03-28T10:22:02.190Z,1025.84
2019-03-28T10:23:02.186Z,1025.89
2019-03-28T10:24:02.179Z,1025.96
2019-03-28T10:25:02.164Z,1025.91
2019-03-28T10:26:02.150Z,1025.89
2019-03-28T10:27:02.140Z,1025.95
2019-03-28T10:28:02.123Z,1025.93
2019-03-28T10:29:02.136Z,1025.94
2019-03-28T10:30:02.115Z,1025.98
2019-03-28T10:31:15.489Z,1025.96
2019-03-28T10:32:03.084Z,1026.02
2019-03-28T10:33:02.109Z,1025.94
2019-03-28T10:34:02.062Z,1025.99
2019-03-28T10:35:02.046Z,1025.98
2019-03-28T10:36:02.045Z,1025.98
2019-03-28T10:37:02.027Z,1026.06
2019-03-28T10:38:02.023Z,1025.96
2019-03-28T10:39:02.019Z,1026.05
2019-03-28T10:40:02.034Z,1026.01
2019-03-28T10:41:02.557Z,1026.05
2019-03-28T10:42:01.973Z,1026.06
2019-03-28T10:43:01.961Z,1025.95
2019-03-28T10:44:01.949Z,1025.99
2019-03-28T10:45:01.935Z,1025.97
2019-03-28T10:46:01.957Z,1026.00
2019-03-28T10:47:04.698Z,1026.05
2019-03-28T10:48:01.903Z,1026.01
2019-03-28T10:49:01.893Z,1026.00
2019-03-28T10:50:04.016Z,1025.98
2019-03-28T10:51:01.871Z,1026.00
2019-03-28T10:52:04.085Z,1025.95
2019-03-28T10:53:01.850Z,1025.97
2019-03-28T10:54:01.836Z,1025.98
2019-03-28T10:55:01.834Z,1025.96
2019-03-28T10:56:01.820Z,1025.99
2019-03-28T10:57:13.051Z,1026.06
2019-03-28T10:58:17.239Z,1026.02
2019-03-28T10:59:02.774Z,1026.05
2019-03-28T11:00:01.765Z,1026.06
2019-03-28T11:01:01.757Z,1026.08
2019-03-28T11:02:01.750Z,1025.99
2019-03-28T11:03:01.842Z,1026.04
2019-03-28T11:04:01.721Z,1026.00
2019-03-28T11:05:01.711Z,1025.98
2019-03-28T11:06:01.722Z,1026.03
2019-03-28T11:07:01.685Z,1026.02
2019-03-28T11:08:01.679Z,1026.03
2019-03-28T11:09:01.669Z,1026.08
2019-03-28T11:10:01.669Z,1026.05
2019-03-28T11:11:01.646Z,1026.07
2019-03-28T11:12:01.637Z,1026.03
2019-03-28T11:13:01.645Z,1026.03
2019-03-28T11:14:01.607Z,1026.10
2019-03-28T11:15:01.605Z,1026.10
2019-03-28T11:16:01.585Z,1026.09
2019-03-28T11:17:01.572Z,1026.10
2019-03-28T11:18:01.575Z,1026.16
2019-03-28T11:19:01.568Z,1026.17
2019-03-28T11:20:01.543Z,1026.17
2019-03-28T11:21:01.533Z,1026.14
2019-03-28T11:22:01.525Z,1026.16
2019-03-28T11:23:02.398Z,1026.20
2019-03-28T11:24:01.496Z,1026.24
2019-03-28T11:25:01.529Z,1026.29
2019-03-28T11:26:01.476Z,1026.28
2019-03-28T11:27:01.467Z,1026.29
2019-03-28T11:28:01.459Z,1026.26
2019-03-28T11:29:01.454Z,1026.28
2019-03-28T11:30:01.435Z,1026.37
2019-03-28T11:31:01.421Z,1026.34
2019-03-28T11:32:01.416Z,1026.35
2019-03-28T11:33:01.399Z,1026.26
2019-03-28T11:34:01.394Z,1026.29
2019-03-28T11:35:01.387Z,1026.32
2019-03-28T11:36:01.373Z,1026.37
2019-03-28T11:37:01.354Z,1026.34
2019-03-28T11:38:01.345Z,1026.38
2019-03-28T11:39:02.844Z,1026.36
2019-03-28T11:40:01.320Z,1026.39
2019-03-28T11:41:01.318Z,1026.32
2019-03-28T11:42:01.981Z,1026.35
2019-03-28T11:43:01.290Z,1026.35
2019-03-28T11:44:01.273Z,1026.40
2019-03-28T11:45:01.281Z,1026.33
2019-03-28T11:46:01.255Z,1026.33
2019-03-28T11:47:01.246Z,1026.26
2019-03-28T11:48:01.235Z,1026.28
2019-03-28T11:49:01.217Z,1026.35
2019-03-28T11:50:01.217Z,1026.29
2019-03-28T11:51:01.242Z,1026.32
2019-03-28T11:52:01.191Z,1026.36
2019-03-28T11:53:01.175Z,1026.29
2019-03-28T11:54:01.164Z,1026.33
2019-03-28T11:55:01.169Z,1026.33
2019-03-28T11:56:01.138Z,1026.37
2019-03-28T11:57:01.143Z,1026.34
2019-03-28T11:58:01.117Z,1026.38
2019-03-28T11:59:04.333Z,1026.36
2019-03-28T12:00:01.450Z,1026.32
2019-03-28T12:01:01.084Z,1026.32
2019-03-28T12:02:18.581Z,1026.32
2019-03-28T12:03:02.063Z,1026.35
2019-03-28T12:04:01.047Z,1026.35
2019-03-28T12:05:01.037Z,1026.41